Latest Weather Observations for Roxby Downs

IDS60801

Issued at 11:31 pm CST Sunday 24 September 2017 (issued every 30 minutes, with the page automatically refreshed every 10 minutes)

About weather observations | Map of weather stations | Latest weather observations for SA | Other Formats
Station Details ID: 016096 Name: OLYMPIC DAM AERODROME Lat: -30.48 Lon: 136.88 Height: 98.5 m
Data from the previous 72 hours. | See also: Recent months at Roxby Downs
Date/Time
CST
Temp
°C
App
Temp
°C
Dew
Point
°C
Rel
Hum
%
Delta-T
°C
Wind Press
QNH
hPa
Press
MSL
hPa
Rain since
9am
mm
Dir  Spd
km/h
Gust
km/h
Spd
kts
Gust
kts
24/11:30pm 16.9 11.8 3.9 42 6.1 S 20 26 11 14 1011.3 1011.1 0.0
24/11:00pm 17.4 12.2 3.7 40 6.4 S 20 28 11 15 1011.3 1011.1 0.0
24/10:30pm 18.0 12.6 2.7 36 7.1 S 20 28 11 15 1011.1 1010.9 0.0
24/10:00pm 16.3 12.7 0.8 35 6.8 S 9 11 5 6 1011.0 1010.8 0.0
24/09:30pm 16.8 12.9 0.9 34 7.0 S 11 13 6 7 1010.7 1010.5 0.0
24/09:00pm 17.4 13.8 0.6 32 7.4 SSW 9 11 5 6 1010.4 1010.2 0.0
24/08:30pm 18.3 14.7 0.9 31 7.8 SSW 9 11 5 6 1009.9 1009.7 0.0
24/08:00pm 19.6 15.7 1.1 29 8.4 WSW 11 13 6 7 1009.8 1009.6 0.0
24/07:30pm 20.7 16.8 1.1 27 9.0 SW 11 15 6 8 1009.2 1009.0 0.0
24/07:00pm 21.6 17.3 0.8 25 9.5 WSW 13 17 7 9 1008.9 1008.7 0.0
24/06:30pm 22.4 17.3 0.9 24 9.9 WSW 17 24 9 13 1008.6 1008.4 0.0
24/06:00pm 23.3 17.9 1.0 23 10.4 W 19 28 10 15 1008.2 1008.0 0.0
24/05:30pm 24.2 17.7 0.5 21 11.0 W 24 33 13 18 1007.9 1007.7 0.0
24/05:00pm 24.6 18.2 0.8 21 11.1 WSW 24 35 13 19 1007.8 1007.6 0.0
24/04:30pm 25.2 18.8 0.7 20 11.5 W 24 39 13 21 1007.7 1007.5 0.0
24/04:00pm 25.0 18.2 0.5 20 11.4 W 26 39 14 21 1007.7 1007.5 0.0
24/03:30pm 25.1 18.6 0.6 20 11.5 W 24 39 13 21 1007.8 1007.6 0.0
24/03:00pm 24.8 18.3 0.3 20 11.4 W 24 33 13 18 1008.0 1007.8 0.0
24/02:30pm 25.4 18.6 0.8 20 11.6 W 26 41 14 22 1008.3 1008.1 0.0
24/02:00pm 24.7 18.3 0.9 21 11.2 W 24 35 13 19 1008.7 1008.5 0.0
24/01:30pm 24.5 18.5 0.8 21 11.1 WSW 22 35 12 19 1009.0 1008.8 0.0
24/01:00pm 23.7 18.2 0.7 22 10.7 W 19 32 10 17 1009.3 1009.1 0.0
24/12:30pm 22.7 17.2 0.5 23 10.2 WSW 19 32 10 17 1009.7 1009.5 0.0
24/12:00pm 22.4 17.0 1.4 25 9.8 WSW 19 28 10 15 1010.3 1010.1 0.0
24/11:30am 22.0 16.4 1.1 25 9.6 W 20 26 11 14 1010.6 1010.4 0.0
24/11:00am 21.5 16.6 1.7 27 9.2 SW 17 24 9 13 1011.1 1010.9 0.0
24/10:30am 20.5 15.6 1.9 29 8.6 WSW 17 22 9 12 1011.4 1011.2 0.0
24/10:00am 19.6 15.2 2.5 32 8.0 SW 15 28 8 15 1011.5 1011.3 0.0
24/09:30am 18.9 14.0 2.3 33 7.7 SSW 17 24 9 13 1011.7 1011.5 0.0
24/09:00am 18.2 13.8 2.9 36 7.1 SW 15 22 8 12 1011.6 1011.4 0.0
24/08:30am 16.6 13.6 4.3 44 5.8 SW 9 15 5 8 1011.5 1011.3 0.0
24/08:00am 15.7 13.2 4.7 48 5.2 WSW 7 11 4 6 1011.2 1011.0 0.0
24/07:30am 14.4 11.7 3.8 49 4.9 WNW 7 9 4 5 1011.1 1010.9 0.0
24/07:00am 10.5 7.9 3.1 60 3.2 NW 6 7 3 4 1010.7 1010.5 0.0
24/06:30am 7.7 4.9 -0.3 57 3.1 NW 4 7 2 4 1010.3 1010.1 0.0
24/06:00am 7.7 5.8 0.4 60 2.9 CALM 0 0 0 0 1009.9 1009.7 0.0
24/05:30am 9.1 6.5 1.0 57 3.3 N 4 7 2 4 1009.6 1009.4 0.0
24/05:00am 10.6 7.8 1.9 55 3.7 SSW 6 9 3 5 1009.1 1008.9 0.0
24/04:30am 11.3 8.3 2.3 54 3.9 WSW 7 9 4 5 1009.1 1008.9 0.0
24/04:00am 12.8 8.8 2.6 50 4.5 SSW 13 15 7 8 1008.7 1008.5 0.0
24/03:30am 13.9 10.3 2.8 47 5.0 SSW 11 17 6 9 1008.8 1008.6 0.0
24/03:00am 14.8 10.8 3.0 45 5.3 S 13 15 7 8 1008.4 1008.2 0.0
24/02:30am 15.5 10.8 3.0 43 5.7 SSW 17 26 9 14 1008.3 1008.1 0.0
24/02:00am 16.0 10.3 3.1 42 5.9 SSW 22 33 12 18 1007.8 1007.6 0.0
24/01:30am 16.4 9.7 3.8 43 5.9 SSW 28 35 15 19 1007.3 1007.1 0.0
24/01:00am 16.6 11.2 2.2 38 6.5 SSW 20 28 11 15 1007.2 1007.0 0.0
24/12:30am 16.5 11.3 0.2 33 7.1 SSW 17 20 9 11 1007.1 1006.9 0.0
24/12:00am 17.2 12.7 -0.5 30 7.6 SSW 13 17 7 9 1006.7 1006.5 0.0
 
Date/Time
CST
Temp
°C
App
Temp
°C
Dew
Point
°C
Rel
Hum
%
Delta-T
°C
Wind Press
QNH
hPa
Press
MSL
hPa
Rain since
9am
mm
Dir  Spd
km/h
Gust
km/h
Spd
kts
Gust
kts
23/11:30pm 14.5 10.8 0.0 37 6.1 SW 9 11 5 6 1006.8 1006.6 0.0
23/11:00pm 13.3 11.0 -2.6 33 6.3 CALM 0 0 0 0 1006.8 1006.6 0.0
23/10:30pm 13.8 11.7 -1.0 36 6.1 CALM 0 0 0 0 1007.0 1006.8 0.0
23/10:00pm 14.7 12.4 -2.7 30 6.9 CALM 0 0 0 0 1007.1 1006.9 0.0
23/09:30pm 15.7 13.5 -1.8 30 7.2 CALM 0 0 0 0 1007.3 1007.1 0.0
23/09:00pm 17.2 14.6 0.8 33 7.2 SW 4 6 2 3 1007.3 1007.1 0.0
23/08:30pm 19.2 16.1 1.2 30 8.2 WSW 7 7 4 4 1007.2 1007.0 0.0
23/08:00pm 21.4 18.0 1.7 27 9.1 WSW 9 11 5 6 1006.9 1006.7 0.0
23/07:30pm 23.1 19.7 2.0 25 10.0 W 9 11 5 6 1006.4 1006.2 0.0
23/07:00pm 24.6 20.6 2.7 24 10.6 W 13 20 7 11 1005.9 1005.7 0.0
23/06:30pm 25.5 20.8 2.9 23 11.1 W 17 24 9 13 1005.1 1005.0 0.0
23/06:00pm 26.6 21.2 2.5 21 11.8 WSW 20 32 11 17 1004.6 1004.5 0.0
23/05:30pm 27.8 21.7 2.8 20 12.4 W 24 37 13 20 1004.3 1004.2 0.0
23/05:00pm 28.1 21.2 2.3 19 12.7 W 28 41 15 22 1004.0 1003.8 0.0
23/04:30pm 28.8 22.3 2.9 19 13.0 W 26 35 14 19 1003.8 1003.6 0.0
23/04:00pm 29.0 22.4 2.3 18 13.2 W 26 41 14 22 1003.8 1003.6 0.0
23/03:30pm 29.1 21.5 3.1 19 13.1 W 32 48 17 26 1003.9 1003.7 0.0
23/03:06pm 29.4 22.5 2.6 18 13.4 W 28 48 15 26 1003.8 1003.6 0.0
23/03:00pm 29.9 23.5 3.0 18 13.6 W 26 43 14 23 1003.7 1003.5 0.0
23/02:31pm 29.9 23.1 3.0 18 13.6 W 28 46 15 25 1003.9 1003.7 0.0
23/02:30pm 29.5 23.0 2.7 18 13.5 W 26 43 14 23 1003.9 1003.7 0.0
23/02:00pm 29.7 22.1 2.9 18 13.5 W 32 54 17 29 1004.1 1003.9 0.0
23/01:30pm 29.6 22.0 2.8 18 13.5 W 32 54 17 29 1004.3 1004.2 0.0
23/01:07pm 29.5 22.0 3.5 19 13.2 WSW 32 50 17 27 1004.3 1004.2 0.0
23/01:00pm 29.5 22.4 3.5 19 13.2 W 30 44 16 24 1004.5 1004.4 0.0
23/12:30pm 28.7 21.6 3.5 20 12.8 WSW 30 48 16 26 1004.5 1004.4 0.0
23/12:22pm 28.7 21.6 3.5 20 12.7 WSW 30 48 16 26 1004.5 1004.4 0.0
23/12:00pm 28.6 21.6 4.2 21 12.5 WSW 30 43 16 23 1004.5 1004.4 0.0
23/11:30am 28.0 20.6 5.0 23 11.9 SW 33 46 18 25 1004.6 1004.5 0.0
23/11:00am 27.4 20.6 6.8 27 10.9 WSW 32 46 17 25 1004.5 1004.4 0.0
23/10:33am 26.4 19.5 7.4 30 10.1 SW 33 52 18 28 1004.7 1004.6 0.0
23/10:30am 26.3 19.5 7.8 31 10.0 WSW 33 46 18 25 1004.7 1004.6 0.0
23/10:00am 26.0 19.2 7.1 30 10.0 WSW 32 43 17 23 1004.8 1004.7 0.0
23/09:30am 26.1 18.6 6.2 28 10.4 WSW 35 48 19 26 1004.9 1004.8 0.0
23/09:00am 26.5 18.6 4.3 24 11.3 WSW 35 48 19 26 1004.5 1004.4 0.0
23/08:37am 26.2 18.7 3.5 23 11.3 WSW 32 50 17 27 1004.1 1003.9 0.0
23/08:30am 26.2 18.7 3.5 23 11.3 WSW 32 46 17 25 1003.8 1003.6 0.0
23/08:00am 26.2 18.6 0.8 19 12.0 WSW 30 46 16 25 1003.1 1002.9 0.0
23/07:56am 26.2 19.0 0.8 19 12.0 WSW 28 46 15 25 1003.0 1002.8 0.0
23/07:30am 25.0 18.9 -2.5 16 12.2 W 20 28 11 15 1002.5 1002.3 0.0
23/07:00am 23.0 16.8 -3.3 17 11.2 W 20 26 11 14 1001.8 1001.6 0.0
23/06:30am 21.8 15.8 -2.8 19 10.6 WNW 19 24 10 13 1001.1 1000.9 0.0
23/06:00am 20.5 16.5 -2.5 21 9.8 NW 9 11 5 6 1000.1 999.9 0.0
23/05:30am 21.6 17.2 -2.3 20 10.3 WNW 11 13 6 7 1000.0 999.8 0.0
23/05:00am 22.9 18.2 -1.9 19 10.9 NNW 13 17 7 9 999.6 999.4 0.0
23/04:30am 22.9 18.2 -1.9 19 10.9 N 13 19 7 10 999.4 999.2 0.0
23/04:00am 21.3 16.2 -1.9 21 10.0 NNE 15 17 8 9 999.4 999.2 0.0
23/03:30am 21.9 16.8 -2.0 20 10.4 N 15 19 8 10 999.8 999.6 0.0
23/03:00am 21.1 16.5 -1.4 22 9.9 N 13 15 7 8 1000.2 1000.0 0.0
23/02:30am 19.3 15.4 -1.7 24 9.0 N 9 11 5 6 1000.7 1000.5 0.0
23/02:00am 20.1 15.8 -1.7 23 9.4 N 11 13 6 7 1001.0 1000.8 0.0
23/01:30am 19.9 15.7 -1.2 24 9.2 NNE 11 13 6 7 1001.4 1001.2 0.0
23/01:00am 19.4 15.6 -1.1 25 8.9 NNE 9 11 5 6 1001.9 1001.7 0.0
23/12:30am 19.3 15.8 -1.7 24 9.0 N 7 9 4 5 1002.2 1002.0 0.0
23/12:00am 18.8 14.9 -1.6 25 8.7 NNE 9 11 5 6 1002.5 1002.3 0.0
 
Date/Time
CST
Temp
°C
App
Temp
°C
Dew
Point
°C
Rel
Hum
%
Delta-T
°C
Wind Press
QNH
hPa
Press
MSL
hPa
Rain since
9am
mm
Dir  Spd
km/h
Gust
km/h
Spd
kts
Gust
kts
22/11:30pm 19.5 15.5 -2.2 23 9.2 NNE 9 9 5 5 1002.6 1002.4 0.0
22/11:00pm 21.4 17.2 -1.2 22 9.9 NNE 11 13 6 7 1002.7 1002.5 0.0
22/10:30pm 22.3 18.4 -1.7 20 10.6 NNE 9 11 5 6 1002.9 1002.7 0.0
22/10:00pm 24.1 20.7 -1.7 18 11.5 NNW 6 9 3 5 1003.2 1003.0 0.0
22/09:30pm 26.5 22.2 -1.3 16 12.7 NW 11 13 6 7 1003.4 1003.2 0.0
22/09:00pm 27.2 23.3 -1.7 15 13.2 NNW 9 13 5 7 1003.5 1003.3 0.0
22/08:30pm 28.7 24.1 -1.4 14 14.0 NW 13 15 7 8 1003.4 1003.2 0.0
22/08:00pm 28.6 24.7 -1.5 14 13.9 NW 9 9 5 5 1003.1 1002.9 0.0
22/07:30pm 30.2 25.8 -2.3 12 15.1 NW 11 13 6 7 1002.9 1002.7 0.0
22/07:00pm 32.0 26.7 -3.4 10 16.2 NW 15 17 8 9 1002.8 1002.6 0.0
22/06:30pm 33.7 27.5 -3.5 9 17.3 WNW 20 32 11 17 1002.6 1002.4 0.0
22/06:00pm 35.0 27.3 -2.6 9 18.0 WNW 28 43 15 23 1002.3 1002.1 0.0
22/05:44pm 35.7 27.2 -3.6 8 18.5 WNW 32 52 17 28 1002.3 1002.1 0.0
22/05:30pm 36.0 28.2 -3.4 8 18.7 NW 28 43 15 23 1002.2 1002.0 0.0
22/05:00pm 36.6 28.1 -3.0 8 18.9 NW 32 52 17 28 1002.2 1002.0 0.0
22/04:56pm 36.6 28.5 -3.0 8 18.9 NW 30 52 16 28 1002.2 1002.0 0.0
22/04:30pm 36.2 29.2 -3.3 8 18.8 NNW 24 41 13 22 1002.3 1002.1 0.0
22/04:12pm 36.5 28.4 -3.0 8 18.9 NW 30 48 16 26 1002.5 1002.3 0.0
22/04:00pm 36.3 27.8 -3.2 8 18.8 NW 32 46 17 25 1002.7 1002.5 0.0
22/03:30pm 36.8 29.1 -2.8 8 19.1 NNW 28 48 15 26 1002.9 1002.7 0.0
22/03:09pm 36.7 29.0 -2.9 8 19.0 NNW 28 50 15 27 1003.1 1002.9 0.0
22/03:00pm 36.2 28.5 -3.3 8 18.8 NNW 28 44 15 24 1003.2 1003.0 0.0
22/02:30pm 36.7 28.6 -2.9 8 19.0 NW 30 44 16 24 1003.5 1003.3 0.0
22/02:00pm 35.7 29.3 -2.0 9 18.2 NW 22 32 12 17 1004.1 1003.9 0.0
22/01:30pm 35.7 29.6 -2.0 9 18.2 NW 20 35 11 19 1004.6 1004.5 0.0
22/01:00pm 35.8 29.0 -2.0 9 18.2 NW 24 33 13 18 1005.2 1005.1 0.0
22/12:30pm 36.1 30.3 -1.7 9 18.4 NW 19 30 10 16 1005.9 1005.7 0.0
22/12:00pm 35.4 29.3 -2.3 9 18.1 NW 20 32 11 17 1006.3 1006.1 0.0
22/11:30am 33.8 28.3 -2.0 10 17.1 NNW 17 24 9 13 1006.8 1006.6 0.0
22/11:00am 31.2 26.7 -0.5 13 15.2 N 13 19 7 10 1007.2 1007.0 0.0
22/10:30am 29.2 25.1 -0.1 15 14.0 N 11 19 6 10 1007.4 1007.2 0.0
22/10:00am 28.3 23.9 0.1 16 13.4 N 13 17 7 9 1007.9 1007.7 0.0
22/09:30am 25.7 21.0 1.1 20 11.7 N 15 20 8 11 1008.0 1007.8 0.0
22/09:00am 23.4 19.3 2.3 25 10.1 N 13 20 7 11 1008.2 1008.0 0.0
22/08:30am 20.9 18.4 4.0 33 8.2 N 6 11 3 6 1008.2 1008.0 0.0
22/08:00am 18.7 16.3 4.1 38 7.0 ENE 6 11 3 6 1007.5 1007.3 0.0
22/07:30am 14.8 13.1 2.0 42 5.7 CALM 0 0 0 0 1007.6 1007.4 0.0
22/07:00am 11.5 9.7 0.9 48 4.4 CALM 0 0 0 0 1007.6 1007.4 0.0
22/06:30am 10.0 7.5 -1.1 46 4.4 S 2 6 1 3 1007.3 1007.1 0.0
22/06:00am 11.2 8.6 1.2 50 4.2 SW 4 11 2 6 1007.4 1007.2 0.0
22/05:30am 11.7 9.4 0.5 46 4.7 S 2 9 1 5 1007.2 1007.0 0.0
22/05:00am 12.9 9.9 0.6 43 5.2 WSW 6 11 3 6 1007.4 1007.2 0.0
22/04:30am 12.9 9.8 0.0 41 5.4 SSE 6 9 3 5 1006.8 1006.6 0.0
22/04:00am 13.9 10.6 0.2 39 5.8 N 7 11 4 6 1007.2 1007.0 0.0
22/03:30am 14.4 11.7 0.3 38 6.0 SE 4 9 2 5 1007.0 1006.8 0.0
22/03:00am 15.9 11.8 0.1 34 6.8 SSW 11 15 6 8 1007.0 1006.8 0.0
22/02:30am 16.9 14.6 0.1 32 7.3 SSE 2 11 1 6 1007.2 1007.0 0.0
22/02:00am 18.1 14.5 0.3 30 7.8 ESE 9 13 5 7 1007.7 1007.5 0.0
22/01:30am 18.8 14.7 -0.1 28 8.3 SE 11 15 6 8 1008.0 1007.8 0.0
22/01:00am 19.5 14.5 -1.0 25 8.9 SE 15 20 8 11 1008.3 1008.1 0.0
22/12:30am 19.4 14.2 -2.8 22 9.3 SE 15 19 8 10 1008.5 1008.3 0.0
22/12:00am 18.2 13.4 -2.7 24 8.7 SSE 13 15 7 8 1009.0 1008.8 0.0

Other Formats:

Comma delimited format used in spreadsheet applications
http://www.bom.gov.au/fwo/IDS60801/IDS60801.95658.axf

JavaScript Object Notation format (JSON) in row-major order
http://www.bom.gov.au/fwo/IDS60801/IDS60801.95658.json